首页
METAR-TAF:

METAR-TAF

机场 :

Warren Field Airport

华盛顿, 北卡罗来纳州, 美国

纬度: 35-34-14N, 经度: 077-02-59W, 海拔: 12米

当前天气观测

该预报发布于22分钟前的08:20 UTC
风速3节,风向西转西北
温度 1°C
湿度 93%
气压 1017 hPa
能見度: 16.1公里
天空无云

METAR: KOCW 170820Z AUTO 30003KT 10SM CLR 01/00 A3004 RMK AO2 T00100000

时间: 03:42 (08:42 UTC)


TAF: 丢失

超过4000个机场的气象观测和天气预报(METAR&TAF报告)。

可查询的气象台以黄色和红色小点在地图上表示。

将鼠标移到小点上方,可查看气象台名称。

然后点击查看天气观测和预报。

如需切换地图:点击带黑十字的绿色按钮放大地图;点击带横线的绿色按钮缩小地图;或者点击绿色箭头查看邻近地区的地图。


METAR-TAF: